SBOSBO ACC / DGAA
Speedbird OnlineSpeedbird Online ACC / DGAA

Kotoka International Airport
10:36 32°C

Location Accra, Ghana
Latitude: 5.605189800262451
Longitude: -0.16678600013256073
Local Time 10:36 on 12 Apr 2024
UTC 0 hours (Africa/Accra)
Currency £1 equals GHS 16.89
METAR DGAA 121000Z 14004KT 050V210 9999 SCT017 32/24 Q1012 NOSIG
TAF TAF DGAA 112300Z 1200/1306 25006KT CAVOK PROB30 TEMPO 1204/1208 4000 TSRA OVC010 FEW020CB BECMG 1211/1213 19015KT SCT025 BECMG 1219/1221 FEW015
Weather As Of 12 Apr 2024 10:36
Description Scattered clouds
Wind 7 km/h from South-East (140°)
Cloud Cover 40%
Precipitation Rain: none, Snow: none
Sunrise 05:54
Sunset 18:08
Rotations During the last 90 days there were
80 flights from LHR
37 flights from LGW
1 flights from ACC
79 flights to LHR
36 flights to LGW
1 flights to ACC
Lounges Adinkra Lounge, Terminal 3
Web Wikipedia
Codes IATA: ACC
ICAO: DGAA
Altitude 62 Meter / 205 Feet
Distance 5,105 KM / 3,172 Miles
from London.
Runways
RunwayLength (m)Surface
033403Asphalt
213403Asphalt
Radio
TypeDescriptionFrequency
APPACCRA APP119.5
GNDACCRA GND121.9
TWRACCRA TWR119.1
Live ATC



Support Speedbird Online

© 2017-2024 Speedbird Online